sensor_id;sensor_type;location;lat;lon;timestamp;temperature;humidity
18753;DHT22;9505;50.882;5.350;2022-10-17T00:01:42;13.50;99.90
18753;DHT22;9505;50.882;5.350;2022-10-17T00:04:07;13.50;99.90
18753;DHT22;9505;50.882;5.350;2022-10-17T00:06:34;13.50;99.90
18753;DHT22;9505;50.882;5.350;2022-10-17T00:09:00;13.50;99.90
18753;DHT22;9505;50.882;5.350;2022-10-17T00:11:26;13.50;99.90
18753;DHT22;9505;50.882;5.350;2022-10-17T00:13:54;13.50;99.90
18753;DHT22;9505;50.882;5.350;2022-10-17T00:18:50;13.40;99.90
18753;DHT22;9505;50.882;5.350;2022-10-17T00:21:16;13.40;99.90
18753;DHT22;9505;50.882;5.350;2022-10-17T00:23:42;13.40;99.90
18753;DHT22;9505;50.882;5.350;2022-10-17T00:26:08;13.50;99.90
18753;DHT22;9505;50.882;5.350;2022-10-17T00:28:34;13.50;99.90
18753;DHT22;9505;50.882;5.350;2022-10-17T00:31:03;13.50;99.90
18753;DHT22;9505;50.882;5.350;2022-10-17T00:33:29;13.50;99.90
18753;DHT22;9505;50.882;5.350;2022-10-17T00:38:33;13.60;99.90
18753;DHT22;9505;50.882;5.350;2022-10-17T00:40:59;13.70;99.90
18753;DHT22;9505;50.882;5.350;2022-10-17T00:43:25;13.90;99.90
18753;DHT22;9505;50.882;5.350;2022-10-17T00:45:51;14.00;99.90
18753;DHT22;9505;50.882;5.350;2022-10-17T00:48:17;14.10;99.90
18753;DHT22;9505;50.882;5.350;2022-10-17T00:50:45;14.20;99.90
18753;DHT22;9505;50.882;5.350;2022-10-17T00:53:13;14.40;99.90
18753;DHT22;9505;50.882;5.350;2022-10-17T00:55:50;14.50;99.90
18753;DHT22;9505;50.882;5.350;2022-10-17T00:58:17;14.60;99.90
18753;DHT22;9505;50.882;5.350;2022-10-17T01:00:45;14.70;99.90
18753;DHT22;9505;50.882;5.350;2022-10-17T01:03:11;14.90;99.90
18753;DHT22;9505;50.882;5.350;2022-10-17T01:05:37;15.10;99.90
18753;DHT22;9505;50.882;5.350;2022-10-17T01:08:03;15.20;99.90
18753;DHT22;9505;50.882;5.350;2022-10-17T01:10:58;15.30;99.90
18753;DHT22;9505;50.882;5.350;2022-10-17T01:13:29;15.40;99.90
18753;DHT22;9505;50.882;5.350;2022-10-17T01:18:32;15.80;99.90
18753;DHT22;9505;50.882;5.350;2022-10-17T01:32:12;16.30;99.90
18753;DHT22;9505;50.882;5.350;2022-10-17T01:34:53;16.40;99.90
18753;DHT22;9505;50.882;5.350;2022-10-17T01:37:31;16.40;99.90
18753;DHT22;9505;50.882;5.350;2022-10-17T01:43:10;16.40;99.90
18753;DHT22;9505;50.882;5.350;2022-10-17T01:45:44;16.40;99.90
18753;DHT22;9505;50.882;5.350;2022-10-17T01:48:16;16.40;99.90
18753;DHT22;9505;50.882;5.350;2022-10-17T01:50:49;16.40;99.90
18753;DHT22;9505;50.882;5.350;2022-10-17T01:53:29;16.40;99.90
18753;DHT22;9505;50.882;5.350;2022-10-17T01:55:56;16.40;99.90
18753;DHT22;9505;50.882;5.350;2022-10-17T01:58:31;16.50;99.90
18753;DHT22;9505;50.882;5.350;2022-10-17T02:01:02;16.50;99.90
18753;DHT22;9505;50.882;5.350;2022-10-17T02:03:30;16.40;99.90
18753;DHT22;9505;50.882;5.350;2022-10-17T02:05:56;16.50;99.90
18753;DHT22;9505;50.882;5.350;2022-10-17T02:08:27;16.50;99.90
18753;DHT22;9505;50.882;5.350;2022-10-17T02:10:55;16.50;99.90
18753;DHT22;9505;50.882;5.350;2022-10-17T02:16:33;16.50;99.90
18753;DHT22;9505;50.882;5.350;2022-10-17T02:19:25;16.50;99.90
18753;DHT22;9505;50.882;5.350;2022-10-17T02:21:56;16.40;99.90
18753;DHT22;9505;50.882;5.350;2022-10-17T02:27:39;16.20;99.90
18753;DHT22;9505;50.882;5.350;2022-10-17T02:30:14;16.20;99.90
18753;DHT22;9505;50.882;5.350;2022-10-17T02:35:20;16.00;99.90
18753;DHT22;9505;50.882;5.350;2022-10-17T02:37:46;16.00;99.90
18753;DHT22;9505;50.882;5.350;2022-10-17T02:40:14;16.00;99.90
18753;DHT22;9505;50.882;5.350;2022-10-17T02:42:43;15.90;99.90
18753;DHT22;9505;50.882;5.350;2022-10-17T02:45:12;15.80;99.90
18753;DHT22;9505;50.882;5.350;2022-10-17T02:47:54;15.90;99.90
18753;DHT22;9505;50.882;5.350;2022-10-17T02:50:24;15.90;99.90
18753;DHT22;9505;50.882;5.350;2022-10-17T02:52:57;15.90;99.90
18753;DHT22;9505;50.882;5.350;2022-10-17T02:55:32;15.90;99.90
18753;DHT22;9505;50.882;5.350;2022-10-17T02:58:03;16.10;99.90
18753;DHT22;9505;50.882;5.350;2022-10-17T03:00:31;16.30;99.90
18753;DHT22;9505;50.882;5.350;2022-10-17T03:02:57;16.50;99.90
18753;DHT22;9505;50.882;5.350;2022-10-17T03:05:26;16.60;99.90
18753;DHT22;9505;50.882;5.350;2022-10-17T03:07:52;16.70;99.90
18753;DHT22;9505;50.882;5.350;2022-10-17T03:10:19;16.90;99.90
18753;DHT22;9505;50.882;5.350;2022-10-17T03:12:45;16.90;99.90
18753;DHT22;9505;50.882;5.350;2022-10-17T03:15:11;17.00;99.90
18753;DHT22;9505;50.882;5.350;2022-10-17T03:17:37;17.10;99.90
18753;DHT22;9505;50.882;5.350;2022-10-17T03:20:04;17.10;99.90
18753;DHT22;9505;50.882;5.350;2022-10-17T03:22:30;17.10;99.90
18753;DHT22;9505;50.882;5.350;2022-10-17T03:24:55;17.20;99.90
18753;DHT22;9505;50.882;5.350;2022-10-17T03:27:21;17.20;99.90
18753;DHT22;9505;50.882;5.350;2022-10-17T03:29:46;17.30;99.90
18753;DHT22;9505;50.882;5.350;2022-10-17T03:32:12;17.30;99.90
18753;DHT22;9505;50.882;5.350;2022-10-17T03:34:38;17.40;99.90
18753;DHT22;9505;50.882;5.350;2022-10-17T03:37:03;17.40;99.90
18753;DHT22;9505;50.882;5.350;2022-10-17T03:39:29;17.40;99.90
18753;DHT22;9505;50.882;5.350;2022-10-17T03:41:55;17.40;99.90
18753;DHT22;9505;50.882;5.350;2022-10-17T03:44:21;17.40;99.90
18753;DHT22;9505;50.882;5.350;2022-10-17T03:46:46;17.40;99.90
18753;DHT22;9505;50.882;5.350;2022-10-17T03:49:12;17.40;99.90
18753;DHT22;9505;50.882;5.350;2022-10-17T03:51:37;17.40;99.90
18753;DHT22;9505;50.882;5.350;2022-10-17T03:54:03;17.50;99.90
18753;DHT22;9505;50.882;5.350;2022-10-17T03:56:29;17.50;99.90
18753;DHT22;9505;50.882;5.350;2022-10-17T03:58:55;17.50;99.90
18753;DHT22;9505;50.882;5.350;2022-10-17T04:01:21;17.60;99.90
18753;DHT22;9505;50.882;5.350;2022-10-17T04:03:52;17.60;99.90
18753;DHT22;9505;50.882;5.350;2022-10-17T04:06:19;17.60;99.90
18753;DHT22;9505;50.882;5.350;2022-10-17T04:08:45;17.60;99.90
18753;DHT22;9505;50.882;5.350;2022-10-17T04:11:17;17.70;99.90
18753;DHT22;9505;50.882;5.350;2022-10-17T04:13:44;17.60;99.90
18753;DHT22;9505;50.882;5.350;2022-10-17T04:16:12;17.60;99.90
18753;DHT22;9505;50.882;5.350;2022-10-17T04:18:38;17.60;99.90
18753;DHT22;9505;50.882;5.350;2022-10-17T04:21:04;17.70;99.90
18753;DHT22;9505;50.882;5.350;2022-10-17T04:23:30;17.70;99.90
18753;DHT22;9505;50.882;5.350;2022-10-17T04:25:57;17.70;99.90
18753;DHT22;9505;50.882;5.350;2022-10-17T04:28:24;17.70;99.90
18753;DHT22;9505;50.882;5.350;2022-10-17T04:31:05;17.70;99.90
18753;DHT22;9505;50.882;5.350;2022-10-17T04:33:31;17.70;99.90
18753;DHT22;9505;50.882;5.350;2022-10-17T04:35:59;17.70;99.90
18753;DHT22;9505;50.882;5.350;2022-10-17T04:38:25;17.70;99.90
18753;DHT22;9505;50.882;5.350;2022-10-17T04:40:51;17.70;99.90
18753;DHT22;9505;50.882;5.350;2022-10-17T04:43:17;17.70;99.90
18753;DHT22;9505;50.882;5.350;2022-10-17T04:45:43;17.70;99.90
18753;DHT22;9505;50.882;5.350;2022-10-17T04:48:08;17.70;99.90
18753;DHT22;9505;50.882;5.350;2022-10-17T04:50:34;17.70;99.90
18753;DHT22;9505;50.882;5.350;2022-10-17T04:53:00;17.70;99.90
18753;DHT22;9505;50.882;5.350;2022-10-17T04:55:25;17.60;99.90
18753;DHT22;9505;50.882;5.350;2022-10-17T04:57:51;17.60;99.90
18753;DHT22;9505;50.882;5.350;2022-10-17T05:00:17;17.60;99.90
18753;DHT22;9505;50.882;5.350;2022-10-17T05:02:42;17.70;99.90
18753;DHT22;9505;50.882;5.350;2022-10-17T05:05:08;17.60;99.90
18753;DHT22;9505;50.882;5.350;2022-10-17T05:07:33;17.70;99.90
18753;DHT22;9505;50.882;5.350;2022-10-17T05:09:59;17.70;99.90
18753;DHT22;9505;50.882;5.350;2022-10-17T05:12:25;17.80;99.90
18753;DHT22;9505;50.882;5.350;2022-10-17T05:14:50;17.80;99.90
18753;DHT22;9505;50.882;5.350;2022-10-17T05:17:16;17.90;99.90
18753;DHT22;9505;50.882;5.350;2022-10-17T05:19:42;17.90;99.90
18753;DHT22;9505;50.882;5.350;2022-10-17T05:22:08;17.90;99.90
18753;DHT22;9505;50.882;5.350;2022-10-17T05:24:33;18.00;99.90
18753;DHT22;9505;50.882;5.350;2022-10-17T05:26:59;18.00;99.90
18753;DHT22;9505;50.882;5.350;2022-10-17T05:29:24;18.10;99.90
18753;DHT22;9505;50.882;5.350;2022-10-17T05:31:50;18.00;99.90
18753;DHT22;9505;50.882;5.350;2022-10-17T05:34:16;18.00;99.90
18753;DHT22;9505;50.882;5.350;2022-10-17T05:36:41;18.10;99.90
18753;DHT22;9505;50.882;5.350;2022-10-17T05:39:07;18.10;99.90
18753;DHT22;9505;50.882;5.350;2022-10-17T05:41:33;18.10;99.90
18753;DHT22;9505;50.882;5.350;2022-10-17T05:43:59;18.10;99.90
18753;DHT22;9505;50.882;5.350;2022-10-17T05:46:24;18.10;99.90
18753;DHT22;9505;50.882;5.350;2022-10-17T05:48:50;18.10;99.90
18753;DHT22;9505;50.882;5.350;2022-10-17T05:51:17;18.00;99.90
18753;DHT22;9505;50.882;5.350;2022-10-17T05:53:42;18.00;99.90
18753;DHT22;9505;50.882;5.350;2022-10-17T05:56:10;18.00;99.90
18753;DHT22;9505;50.882;5.350;2022-10-17T05:58:39;18.00;99.90
18753;DHT22;9505;50.882;5.350;2022-10-17T06:01:05;18.00;99.90
18753;DHT22;9505;50.882;5.350;2022-10-17T06:03:32;18.00;99.90
18753;DHT22;9505;50.882;5.350;2022-10-17T06:06:10;17.90;99.90
18753;DHT22;9505;50.882;5.350;2022-10-17T06:08:36;17.90;99.90
18753;DHT22;9505;50.882;5.350;2022-10-17T06:11:02;17.90;99.90
18753;DHT22;9505;50.882;5.350;2022-10-17T06:13:28;17.90;99.90
18753;DHT22;9505;50.882;5.350;2022-10-17T06:15:54;17.90;99.90
18753;DHT22;9505;50.882;5.350;2022-10-17T06:18:20;18.00;99.90
18753;DHT22;9505;50.882;5.350;2022-10-17T06:20:45;18.00;99.90
18753;DHT22;9505;50.882;5.350;2022-10-17T06:23:11;17.90;99.90
18753;DHT22;9505;50.882;5.350;2022-10-17T06:25:36;18.00;99.90
18753;DHT22;9505;50.882;5.350;2022-10-17T06:28:02;18.00;99.90
18753;DHT22;9505;50.882;5.350;2022-10-17T06:30:28;18.00;99.90
18753;DHT22;9505;50.882;5.350;2022-10-17T06:32:54;18.00;99.90
18753;DHT22;9505;50.882;5.350;2022-10-17T06:35:19;18.00;99.90
18753;DHT22;9505;50.882;5.350;2022-10-17T06:37:45;18.00;99.90
18753;DHT22;9505;50.882;5.350;2022-10-17T06:40:11;18.00;99.90
18753;DHT22;9505;50.882;5.350;2022-10-17T06:42:37;18.00;99.90
18753;DHT22;9505;50.882;5.350;2022-10-17T06:45:04;18.00;99.90
18753;DHT22;9505;50.882;5.350;2022-10-17T06:47:30;18.00;99.90
18753;DHT22;9505;50.882;5.350;2022-10-17T06:49:55;18.10;99.90
18753;DHT22;9505;50.882;5.350;2022-10-17T06:52:21;18.10;99.90
18753;DHT22;9505;50.882;5.350;2022-10-17T06:54:47;18.10;99.90
18753;DHT22;9505;50.882;5.350;2022-10-17T06:57:13;18.10;99.90
18753;DHT22;9505;50.882;5.350;2022-10-17T06:59:38;18.00;99.90
18753;DHT22;9505;50.882;5.350;2022-10-17T07:02:04;18.10;99.90
18753;DHT22;9505;50.882;5.350;2022-10-17T07:04:30;18.20;99.90
18753;DHT22;9505;50.882;5.350;2022-10-17T07:06:56;18.30;99.90
18753;DHT22;9505;50.882;5.350;2022-10-17T07:09:22;18.30;99.90
18753;DHT22;9505;50.882;5.350;2022-10-17T07:11:48;18.30;99.90
18753;DHT22;9505;50.882;5.350;2022-10-17T07:14:14;18.40;99.90
18753;DHT22;9505;50.882;5.350;2022-10-17T07:16:39;18.60;99.90
18753;DHT22;9505;50.882;5.350;2022-10-17T07:19:05;18.70;99.90
18753;DHT22;9505;50.882;5.350;2022-10-17T07:21:30;18.80;99.90
18753;DHT22;9505;50.882;5.350;2022-10-17T07:23:57;18.80;99.90
18753;DHT22;9505;50.882;5.350;2022-10-17T07:26:23;18.80;99.90
18753;DHT22;9505;50.882;5.350;2022-10-17T07:28:53;18.90;99.90
18753;DHT22;9505;50.882;5.350;2022-10-17T07:31:20;19.00;99.90
18753;DHT22;9505;50.882;5.350;2022-10-17T07:33:46;19.00;99.90
18753;DHT22;9505;50.882;5.350;2022-10-17T07:36:12;19.10;99.90
18753;DHT22;9505;50.882;5.350;2022-10-17T07:38:39;19.20;99.90
18753;DHT22;9505;50.882;5.350;2022-10-17T07:41:06;19.20;99.90
18753;DHT22;9505;50.882;5.350;2022-10-17T07:43:33;19.30;99.90
18753;DHT22;9505;50.882;5.350;2022-10-17T07:45:59;19.50;99.90
18753;DHT22;9505;50.882;5.350;2022-10-17T07:48:25;19.50;99.90
18753;DHT22;9505;50.882;5.350;2022-10-17T07:50:51;19.60;99.90
18753;DHT22;9505;50.882;5.350;2022-10-17T07:53:17;19.60;99.90
18753;DHT22;9505;50.882;5.350;2022-10-17T07:55:43;19.60;99.90
18753;DHT22;9505;50.882;5.350;2022-10-17T07:58:14;19.60;99.90
18753;DHT22;9505;50.882;5.350;2022-10-17T08:00:40;19.70;99.90
18753;DHT22;9505;50.882;5.350;2022-10-17T08:03:06;19.70;99.90
18753;DHT22;9505;50.882;5.350;2022-10-17T08:05:32;19.70;99.90
18753;DHT22;9505;50.882;5.350;2022-10-17T08:07:58;19.60;99.90
18753;DHT22;9505;50.882;5.350;2022-10-17T08:10:24;19.50;99.90
18753;DHT22;9505;50.882;5.350;2022-10-17T08:12:53;19.50;99.90
18753;DHT22;9505;50.882;5.350;2022-10-17T08:15:19;19.50;99.90
18753;DHT22;9505;50.882;5.350;2022-10-17T08:17:45;19.40;99.90
18753;DHT22;9505;50.882;5.350;2022-10-17T08:20:10;19.40;99.90
18753;DHT22;9505;50.882;5.350;2022-10-17T08:22:36;19.40;99.90
18753;DHT22;9505;50.882;5.350;2022-10-17T08:25:02;19.40;99.90
18753;DHT22;9505;50.882;5.350;2022-10-17T08:27:28;19.50;99.90
18753;DHT22;9505;50.882;5.350;2022-10-17T08:29:54;19.60;99.90
18753;DHT22;9505;50.882;5.350;2022-10-17T08:32:21;19.70;99.90
18753;DHT22;9505;50.882;5.350;2022-10-17T08:34:49;19.90;99.90
18753;DHT22;9505;50.882;5.350;2022-10-17T08:37:14;20.00;99.90
18753;DHT22;9505;50.882;5.350;2022-10-17T08:39:41;20.10;99.90
18753;DHT22;9505;50.882;5.350;2022-10-17T08:42:37;20.10;99.90
18753;DHT22;9505;50.882;5.350;2022-10-17T08:48:00;19.90;99.90
18753;DHT22;9505;50.882;5.350;2022-10-17T08:53:07;19.70;99.90
18753;DHT22;9505;50.882;5.350;2022-10-17T08:55:39;19.70;99.90
18753;DHT22;9505;50.882;5.350;2022-10-17T08:58:12;19.60;99.90
18753;DHT22;9505;50.882;5.350;2022-10-17T09:00:45;19.50;99.90
18753;DHT22;9505;50.882;5.350;2022-10-17T09:05:52;19.60;99.90
18753;DHT22;9505;50.882;5.350;2022-10-17T09:08:23;19.70;99.90
18753;DHT22;9505;50.882;5.350;2022-10-17T09:11:14;19.80;99.90
18753;DHT22;9505;50.882;5.350;2022-10-17T09:13:54;19.90;99.90
18753;DHT22;9505;50.882;5.350;2022-10-17T09:19:17;20.50;99.90
18753;DHT22;9505;50.882;5.350;2022-10-17T09:22:04;20.60;99.90
18753;DHT22;9505;50.882;5.350;2022-10-17T09:25:01;20.60;99.90
18753;DHT22;9505;50.882;5.350;2022-10-17T09:27:51;20.50;99.90
18753;DHT22;9505;50.882;5.350;2022-10-17T09:32:59;20.50;99.90
18753;DHT22;9505;50.882;5.350;2022-10-17T09:35:26;20.30;99.90
18753;DHT22;9505;50.882;5.350;2022-10-17T09:37:52;20.20;99.90
18753;DHT22;9505;50.882;5.350;2022-10-17T09:40:27;20.00;99.90
18753;DHT22;9505;50.882;5.350;2022-10-17T09:42:54;19.20;99.90
18753;DHT22;9505;50.882;5.350;2022-10-17T09:45:22;18.80;99.90
18753;DHT22;9505;50.882;5.350;2022-10-17T09:50:32;18.40;99.90
18753;DHT22;9505;50.882;5.350;2022-10-17T09:53:12;18.40;99.90
18753;DHT22;9505;50.882;5.350;2022-10-17T09:55:44;18.50;99.90
18753;DHT22;9505;50.882;5.350;2022-10-17T09:58:12;18.50;99.90
18753;DHT22;9505;50.882;5.350;2022-10-17T10:00:40;18.30;99.90
18753;DHT22;9505;50.882;5.350;2022-10-17T10:03:23;18.20;99.90
18753;DHT22;9505;50.882;5.350;2022-10-17T10:06:11;18.10;99.90
18753;DHT22;9505;50.882;5.350;2022-10-17T10:09:18;18.20;99.90
18753;DHT22;9505;50.882;5.350;2022-10-17T10:11:48;18.20;99.90
18753;DHT22;9505;50.882;5.350;2022-10-17T10:14:21;18.20;99.90
18753;DHT22;9505;50.882;5.350;2022-10-17T10:16:48;18.30;99.90
18753;DHT22;9505;50.882;5.350;2022-10-17T10:19:48;18.30;99.90
18753;DHT22;9505;50.882;5.350;2022-10-17T10:22:16;18.40;99.90
18753;DHT22;9505;50.882;5.350;2022-10-17T10:24:41;18.40;99.90
18753;DHT22;9505;50.882;5.350;2022-10-17T10:27:15;18.40;99.90
18753;DHT22;9505;50.882;5.350;2022-10-17T10:29:42;18.40;99.90
18753;DHT22;9505;50.882;5.350;2022-10-17T10:32:25;18.40;99.90
18753;DHT22;9505;50.882;5.350;2022-10-17T10:35:00;18.40;99.90
18753;DHT22;9505;50.882;5.350;2022-10-17T10:37:32;18.40;99.90
18753;DHT22;9505;50.882;5.350;2022-10-17T10:40:26;18.30;99.90
18753;DHT22;9505;50.882;5.350;2022-10-17T10:42:55;18.30;99.90
18753;DHT22;9505;50.882;5.350;2022-10-17T10:45:28;18.20;99.90
18753;DHT22;9505;50.882;5.350;2022-10-17T10:47:59;18.20;99.90
18753;DHT22;9505;50.882;5.350;2022-10-17T10:50:28;18.30;99.90
18753;DHT22;9505;50.882;5.350;2022-10-17T11:04:42;18.50;99.90
18753;DHT22;9505;50.882;5.350;2022-10-17T11:09:55;18.60;99.90
18753;DHT22;9505;50.882;5.350;2022-10-17T11:12:24;18.60;99.90
18753;DHT22;9505;50.882;5.350;2022-10-17T11:14:52;18.80;99.90
18753;DHT22;9505;50.882;5.350;2022-10-17T11:17:26;18.90;99.90
18753;DHT22;9505;50.882;5.350;2022-10-17T11:22:35;19.00;99.90
18753;DHT22;9505;50.882;5.350;2022-10-17T11:27:43;19.10;99.90
18753;DHT22;9505;50.882;5.350;2022-10-17T11:30:15;19.10;99.90
18753;DHT22;9505;50.882;5.350;2022-10-17T11:32:51;19.20;99.90
18753;DHT22;9505;50.882;5.350;2022-10-17T11:35:37;19.20;99.90
18753;DHT22;9505;50.882;5.350;2022-10-17T11:38:07;19.20;99.90
18753;DHT22;9505;50.882;5.350;2022-10-17T11:40:39;19.30;99.90
18753;DHT22;9505;50.882;5.350;2022-10-17T11:45:50;19.30;99.90
18753;DHT22;9505;50.882;5.350;2022-10-17T11:48:21;19.40;99.90
18753;DHT22;9505;50.882;5.350;2022-10-17T11:50:52;19.40;99.90
18753;DHT22;9505;50.882;5.350;2022-10-17T11:53:26;19.40;99.90
18753;DHT22;9505;50.882;5.350;2022-10-17T11:55:54;19.50;99.90
18753;DHT22;9505;50.882;5.350;2022-10-17T11:59:01;19.50;99.90
18753;DHT22;9505;50.882;5.350;2022-10-17T12:01:38;19.50;99.90
18753;DHT22;9505;50.882;5.350;2022-10-17T12:04:25;19.50;99.90
18753;DHT22;9505;50.882;5.350;2022-10-17T12:07:06;19.60;99.90
18753;DHT22;9505;50.882;5.350;2022-10-17T12:09:57;19.60;99.90
18753;DHT22;9505;50.882;5.350;2022-10-17T12:12:26;19.60;99.90
18753;DHT22;9505;50.882;5.350;2022-10-17T12:14:52;19.60;99.90
18753;DHT22;9505;50.882;5.350;2022-10-17T12:20:23;19.60;99.90
18753;DHT22;9505;50.882;5.350;2022-10-17T12:22:51;19.60;99.90
18753;DHT22;9505;50.882;5.350;2022-10-17T12:25:28;19.60;99.90
18753;DHT22;9505;50.882;5.350;2022-10-17T12:28:25;19.60;99.90
18753;DHT22;9505;50.882;5.350;2022-10-17T12:33:26;19.60;99.90
18753;DHT22;9505;50.882;5.350;2022-10-17T12:38:42;19.70;99.90
18753;DHT22;9505;50.882;5.350;2022-10-17T12:41:08;19.70;99.90
18753;DHT22;9505;50.882;5.350;2022-10-17T12:43:51;19.70;99.90
18753;DHT22;9505;50.882;5.350;2022-10-17T12:55:15;19.60;99.90
18753;DHT22;9505;50.882;5.350;2022-10-17T13:00:13;19.40;99.90
18753;DHT22;9505;50.882;5.350;2022-10-17T13:02:39;19.60;99.90
18753;DHT22;9505;50.882;5.350;2022-10-17T13:05:10;19.70;99.90
18753;DHT22;9505;50.882;5.350;2022-10-17T13:07:40;19.70;99.90
18753;DHT22;9505;50.882;5.350;2022-10-17T13:10:19;19.90;99.90
18753;DHT22;9505;50.882;5.350;2022-10-17T13:12:46;20.10;99.90
18753;DHT22;9505;50.882;5.350;2022-10-17T13:15:16;20.00;99.90
18753;DHT22;9505;50.882;5.350;2022-10-17T13:17:43;19.90;99.90
18753;DHT22;9505;50.882;5.350;2022-10-17T13:20:20;19.90;99.90
18753;DHT22;9505;50.882;5.350;2022-10-17T13:22:47;19.80;99.90
18753;DHT22;9505;50.882;5.350;2022-10-17T13:25:16;19.80;99.90
18753;DHT22;9505;50.882;5.350;2022-10-17T13:27:42;19.60;99.90
18753;DHT22;9505;50.882;5.350;2022-10-17T13:30:25;19.70;99.90
18753;DHT22;9505;50.882;5.350;2022-10-17T13:32:51;19.70;99.90
18753;DHT22;9505;50.882;5.350;2022-10-17T13:35:37;19.80;99.90
18753;DHT22;9505;50.882;5.350;2022-10-17T13:38:04;19.80;99.90
18753;DHT22;9505;50.882;5.350;2022-10-17T13:40:41;19.70;99.90
18753;DHT22;9505;50.882;5.350;2022-10-17T13:43:16;19.60;99.90
18753;DHT22;9505;50.882;5.350;2022-10-17T13:45:48;19.50;99.90
18753;DHT22;9505;50.882;5.350;2022-10-17T13:48:26;19.60;99.90
18753;DHT22;9505;50.882;5.350;2022-10-17T13:50:55;19.50;99.90
18753;DHT22;9505;50.882;5.350;2022-10-17T13:53:33;19.50;99.90
18753;DHT22;9505;50.882;5.350;2022-10-17T13:56:02;19.50;99.90
18753;DHT22;9505;50.882;5.350;2022-10-17T13:58:45;19.40;99.90
18753;DHT22;9505;50.882;5.350;2022-10-17T14:01:12;19.40;99.90
18753;DHT22;9505;50.882;5.350;2022-10-17T14:03:40;19.40;99.90
18753;DHT22;9505;50.882;5.350;2022-10-17T14:06:19;19.50;99.90
18753;DHT22;9505;50.882;5.350;2022-10-17T14:08:55;19.60;99.90
18753;DHT22;9505;50.882;5.350;2022-10-17T14:11:42;19.50;99.90
18753;DHT22;9505;50.882;5.350;2022-10-17T14:14:17;19.40;99.90
18753;DHT22;9505;50.882;5.350;2022-10-17T14:16:44;19.40;99.90
18753;DHT22;9505;50.882;5.350;2022-10-17T14:19:34;19.30;99.90
18753;DHT22;9505;50.882;5.350;2022-10-17T14:24:40;19.20;99.90
18753;DHT22;9505;50.882;5.350;2022-10-17T14:29:58;19.10;99.90
18753;DHT22;9505;50.882;5.350;2022-10-17T14:32:30;19.00;99.90
18753;DHT22;9505;50.882;5.350;2022-10-17T14:34:59;18.70;99.90
18753;DHT22;9505;50.882;5.350;2022-10-17T14:40:13;18.40;99.90
18753;DHT22;9505;50.882;5.350;2022-10-17T14:42:40;18.40;99.90
18753;DHT22;9505;50.882;5.350;2022-10-17T14:45:08;18.40;99.90
18753;DHT22;9505;50.882;5.350;2022-10-17T14:47:36;18.40;99.90
18753;DHT22;9505;50.882;5.350;2022-10-17T14:52:37;18.40;99.90
18753;DHT22;9505;50.882;5.350;2022-10-17T14:55:24;18.40;99.90
18753;DHT22;9505;50.882;5.350;2022-10-17T14:57:50;18.40;99.90
18753;DHT22;9505;50.882;5.350;2022-10-17T15:00:17;18.50;99.90
18753;DHT22;9505;50.882;5.350;2022-10-17T15:02:44;18.60;99.90
18753;DHT22;9505;50.882;5.350;2022-10-17T15:05:10;18.60;99.90
18753;DHT22;9505;50.882;5.350;2022-10-17T15:07:36;18.60;99.90
18753;DHT22;9505;50.882;5.350;2022-10-17T15:10:02;18.50;99.90
18753;DHT22;9505;50.882;5.350;2022-10-17T15:12:28;18.60;99.90
18753;DHT22;9505;50.882;5.350;2022-10-17T15:14:55;18.60;99.90
18753;DHT22;9505;50.882;5.350;2022-10-17T15:17:26;18.70;99.90
18753;DHT22;9505;50.882;5.350;2022-10-17T15:19:53;18.70;99.90
18753;DHT22;9505;50.882;5.350;2022-10-17T15:22:19;18.70;99.90
18753;DHT22;9505;50.882;5.350;2022-10-17T15:24:45;18.70;99.90
18753;DHT22;9505;50.882;5.350;2022-10-17T15:27:19;18.60;99.90
18753;DHT22;9505;50.882;5.350;2022-10-17T15:29:46;18.50;99.90
18753;DHT22;9505;50.882;5.350;2022-10-17T15:32:12;18.50;99.90
18753;DHT22;9505;50.882;5.350;2022-10-17T15:34:38;18.50;99.90
18753;DHT22;9505;50.882;5.350;2022-10-17T15:37:05;18.50;99.90
18753;DHT22;9505;50.882;5.350;2022-10-17T15:39:32;18.50;99.90
18753;DHT22;9505;50.882;5.350;2022-10-17T15:41:58;18.40;99.90
18753;DHT22;9505;50.882;5.350;2022-10-17T15:44:24;18.40;99.90
18753;DHT22;9505;50.882;5.350;2022-10-17T15:46:49;18.40;99.90
18753;DHT22;9505;50.882;5.350;2022-10-17T15:49:17;18.30;99.90
18753;DHT22;9505;50.882;5.350;2022-10-17T15:51:44;18.30;99.90
18753;DHT22;9505;50.882;5.350;2022-10-17T15:54:10;18.30;99.90
18753;DHT22;9505;50.882;5.350;2022-10-17T15:56:40;18.20;99.90
18753;DHT22;9505;50.882;5.350;2022-10-17T15:59:29;18.20;99.90
18753;DHT22;9505;50.882;5.350;2022-10-17T16:01:56;18.10;99.90
18753;DHT22;9505;50.882;5.350;2022-10-17T16:04:21;18.10;99.90
18753;DHT22;9505;50.882;5.350;2022-10-17T16:06:51;18.00;99.90
18753;DHT22;9505;50.882;5.350;2022-10-17T16:09:16;18.00;99.90
18753;DHT22;9505;50.882;5.350;2022-10-17T16:11:43;18.00;99.90
18753;DHT22;9505;50.882;5.350;2022-10-17T16:14:11;17.90;99.90
18753;DHT22;9505;50.882;5.350;2022-10-17T16:16:37;17.90;99.90
18753;DHT22;9505;50.882;5.350;2022-10-17T16:19:03;17.90;99.90
18753;DHT22;9505;50.882;5.350;2022-10-17T16:21:31;17.90;99.90
18753;DHT22;9505;50.882;5.350;2022-10-17T16:23:58;17.80;99.90
18753;DHT22;9505;50.882;5.350;2022-10-17T16:26:25;17.80;99.90
18753;DHT22;9505;50.882;5.350;2022-10-17T16:28:51;17.70;99.90
18753;DHT22;9505;50.882;5.350;2022-10-17T16:31:25;17.60;99.90
18753;DHT22;9505;50.882;5.350;2022-10-17T16:33:54;17.60;99.90
18753;DHT22;9505;50.882;5.350;2022-10-17T16:36:20;17.50;99.90
18753;DHT22;9505;50.882;5.350;2022-10-17T16:38:46;17.50;99.90
18753;DHT22;9505;50.882;5.350;2022-10-17T16:41:38;17.40;99.90
18753;DHT22;9505;50.882;5.350;2022-10-17T16:44:06;17.40;99.90
18753;DHT22;9505;50.882;5.350;2022-10-17T16:46:34;17.30;99.90
18753;DHT22;9505;50.882;5.350;2022-10-17T16:49:03;17.30;99.90
18753;DHT22;9505;50.882;5.350;2022-10-17T16:51:29;17.30;99.90
18753;DHT22;9505;50.882;5.350;2022-10-17T16:53:56;17.30;99.90
18753;DHT22;9505;50.882;5.350;2022-10-17T16:56:25;17.20;99.90
18753;DHT22;9505;50.882;5.350;2022-10-17T16:58:54;17.10;99.90
18753;DHT22;9505;50.882;5.350;2022-10-17T17:01:22;17.10;99.90
18753;DHT22;9505;50.882;5.350;2022-10-17T17:03:49;17.00;99.90
18753;DHT22;9505;50.882;5.350;2022-10-17T17:06:18;17.00;99.90
18753;DHT22;9505;50.882;5.350;2022-10-17T17:08:45;16.90;99.90
18753;DHT22;9505;50.882;5.350;2022-10-17T17:11:12;16.90;99.90
18753;DHT22;9505;50.882;5.350;2022-10-17T17:13:38;16.90;99.90
18753;DHT22;9505;50.882;5.350;2022-10-17T17:16:07;16.80;99.90
18753;DHT22;9505;50.882;5.350;2022-10-17T17:18:34;16.80;99.90
18753;DHT22;9505;50.882;5.350;2022-10-17T17:21:01;16.80;99.90
18753;DHT22;9505;50.882;5.350;2022-10-17T17:23:28;16.80;99.90
18753;DHT22;9505;50.882;5.350;2022-10-17T17:25:59;16.70;99.90
18753;DHT22;9505;50.882;5.350;2022-10-17T17:28:26;16.70;99.90
18753;DHT22;9505;50.882;5.350;2022-10-17T17:30:52;16.60;99.90
18753;DHT22;9505;50.882;5.350;2022-10-17T17:33:18;16.70;99.90
18753;DHT22;9505;50.882;5.350;2022-10-17T17:35:44;16.60;99.90
18753;DHT22;9505;50.882;5.350;2022-10-17T17:38:10;16.60;99.90
18753;DHT22;9505;50.882;5.350;2022-10-17T17:40:35;16.60;99.90